sensor_id;sensor_type;location;lat;lon;timestamp;pressure;altitude;pressure_sealevel;temperature;humidity
28312;BME280;15572;48.810;9.148;2022-07-25T00:04:38;97893.25;;;21.59;88.66
28312;BME280;15572;48.810;9.148;2022-07-25T00:09:35;97885.81;;;21.55;88.89
28312;BME280;15572;48.810;9.148;2022-07-25T00:14:32;97886.91;;;21.54;89.23
28312;BME280;15572;48.810;9.148;2022-07-25T00:19:28;97886.63;;;21.50;89.34
28312;BME280;15572;48.810;9.148;2022-07-25T00:24:26;97886.91;;;21.43;90.33
28312;BME280;15572;48.810;9.148;2022-07-25T00:29:23;97885.81;;;21.45;90.41
28312;BME280;15572;48.810;9.148;2022-07-25T00:34:19;97890.78;;;21.53;91.01
28312;BME280;15572;48.810;9.148;2022-07-25T00:39:16;97886.91;;;21.49;91.07
28312;BME280;15572;48.810;9.148;2022-07-25T00:44:22;97883.88;;;21.40;91.76
28312;BME280;15572;48.810;9.148;2022-07-25T00:49:19;97887.72;;;21.34;92.19
28312;BME280;15572;48.810;9.148;2022-07-25T00:54:16;97881.13;;;21.35;92.54
28312;BME280;15572;48.810;9.148;2022-07-25T00:59:13;97879.19;;;21.35;92.16
28312;BME280;15572;48.810;9.148;2022-07-25T01:04:12;97883.31;;;21.33;91.95
28312;BME280;15572;48.810;9.148;2022-07-25T01:09:09;97881.94;;;21.25;92.37
28312;BME280;15572;48.810;9.148;2022-07-25T01:14:06;97879.44;;;21.29;92.74
28312;BME280;15572;48.810;9.148;2022-07-25T01:19:03;97881.63;;;21.32;92.86
28312;BME280;15572;48.810;9.148;2022-07-25T01:24:01;97875.88;;;21.28;92.78
28312;BME280;15572;48.810;9.148;2022-07-25T01:28:57;97870.63;;;21.27;92.89
28312;BME280;15572;48.810;9.148;2022-07-25T01:33:54;97853.78;;;21.08;93.54
28312;BME280;15572;48.810;9.148;2022-07-25T01:38:50;97857.06;;;21.00;93.64
28312;BME280;15572;48.810;9.148;2022-07-25T01:43:48;97853.75;;;20.93;94.38
28312;BME280;15572;48.810;9.148;2022-07-25T01:48:45;97854.28;;;20.95;94.53
28312;BME280;15572;48.810;9.148;2022-07-25T01:53:41;97847.41;;;20.92;94.67
28312;BME280;15572;48.810;9.148;2022-07-25T01:58:38;97853.75;;;20.88;94.90
28312;BME280;15572;48.810;9.148;2022-07-25T02:03:35;97847.66;;;20.86;95.43
28312;BME280;15572;48.810;9.148;2022-07-25T02:08:32;97839.16;;;20.82;95.68
28312;BME280;15572;48.810;9.148;2022-07-25T02:13:29;97839.16;;;20.82;95.88
28312;BME280;15572;48.810;9.148;2022-07-25T02:18:26;97835.56;;;20.82;96.06
28312;BME280;15572;48.810;9.148;2022-07-25T02:23:23;97824.00;;;20.80;96.03
28312;BME280;15572;48.810;9.148;2022-07-25T02:28:20;97830.59;;;20.79;96.04
28312;BME280;15572;48.810;9.148;2022-07-25T02:33:16;97821.78;;;20.72;96.48
28312;BME280;15572;48.810;9.148;2022-07-25T02:38:13;97817.63;;;20.69;96.71
28312;BME280;15572;48.810;9.148;2022-07-25T02:43:15;97814.88;;;20.64;97.07
28312;BME280;15572;48.810;9.148;2022-07-25T02:48:12;97814.31;;;20.62;97.38
28312;BME280;15572;48.810;9.148;2022-07-25T02:53:09;97806.63;;;20.59;97.42
28312;BME280;15572;48.810;9.148;2022-07-25T02:58:05;97822.28;;;20.58;97.49
28312;BME280;15572;48.810;9.148;2022-07-25T03:03:03;97809.09;;;20.61;97.76
28312;BME280;15572;48.810;9.148;2022-07-25T03:07:59;97810.19;;;20.65;97.72
28312;BME280;15572;48.810;9.148;2022-07-25T03:12:56;97819.81;;;20.62;97.51
28312;BME280;15572;48.810;9.148;2022-07-25T03:17:52;97816.25;;;20.56;97.61
28312;BME280;15572;48.810;9.148;2022-07-25T03:22:50;97809.06;;;20.50;98.03
28312;BME280;15572;48.810;9.148;2022-07-25T03:27:47;97799.13;;;20.44;98.38
28312;BME280;15572;48.810;9.148;2022-07-25T03:32:44;97796.09;;;20.41;98.43
28312;BME280;15572;48.810;9.148;2022-07-25T03:37:40;97788.66;;;20.36;98.97
28312;BME280;15572;48.810;9.148;2022-07-25T03:42:38;97783.97;;;20.32;99.07
28312;BME280;15572;48.810;9.148;2022-07-25T03:47:35;97780.06;;;20.23;99.70
28312;BME280;15572;48.810;9.148;2022-07-25T03:52:31;97786.06;;;20.19;99.56
28312;BME280;15572;48.810;9.148;2022-07-25T03:57:27;97774.22;;;20.14;99.92
28312;BME280;15572;48.810;9.148;2022-07-25T04:02:25;97773.72;;;20.17;99.97
28312;BME280;15572;48.810;9.148;2022-07-25T04:07:22;97767.13;;;20.18;100.00
28312;BME280;15572;48.810;9.148;2022-07-25T04:12:18;97770.41;;;20.20;99.73
28312;BME280;15572;48.810;9.148;2022-07-25T04:17:15;97767.97;;;20.24;99.36
28312;BME280;15572;48.810;9.148;2022-07-25T04:22:13;97762.19;;;20.30;99.40
28312;BME280;15572;48.810;9.148;2022-07-25T04:27:10;97763.38;;;20.34;98.83
28312;BME280;15572;48.810;9.148;2022-07-25T04:32:06;97757.06;;;20.39;98.78
28312;BME280;15572;48.810;9.148;2022-07-25T04:37:03;97757.66;;;20.46;98.82
28312;BME280;15572;48.810;9.148;2022-07-25T04:42:01;97757.66;;;20.56;97.86
28312;BME280;15572;48.810;9.148;2022-07-25T04:46:57;97761.53;;;20.65;97.46
28312;BME280;15572;48.810;9.148;2022-07-25T04:51:54;97756.31;;;20.79;96.67
28312;BME280;15572;48.810;9.148;2022-07-25T04:56:50;97749.22;;;20.88;96.08
28312;BME280;15572;48.810;9.148;2022-07-25T05:01:48;97751.13;;;20.97;95.01
28312;BME280;15572;48.810;9.148;2022-07-25T05:06:44;97750.31;;;21.12;93.67
28312;BME280;15572;48.810;9.148;2022-07-25T05:11:41;97744.84;;;21.32;92.65
28312;BME280;15572;48.810;9.148;2022-07-25T05:16:37;97743.47;;;21.50;92.10
28312;BME280;15572;48.810;9.148;2022-07-25T05:21:35;97745.09;;;21.66;92.27
28312;BME280;15572;48.810;9.148;2022-07-25T05:26:32;97743.38;;;21.96;91.52
28312;BME280;15572;48.810;9.148;2022-07-25T05:31:28;97741.41;;;22.16;90.40
28312;BME280;15572;48.810;9.148;2022-07-25T05:36:25;97741.56;;;22.35;89.21
28312;BME280;15572;48.810;9.148;2022-07-25T05:41:23;97741.78;;;22.54;88.09
28312;BME280;15572;48.810;9.148;2022-07-25T05:46:19;97735.34;;;22.68;86.42
28312;BME280;15572;48.810;9.148;2022-07-25T05:51:16;97731.13;;;22.86;85.41
28312;BME280;15572;48.810;9.148;2022-07-25T05:56:12;97727.91;;;23.08;83.68
28312;BME280;15572;48.810;9.148;2022-07-25T06:01:13;97724.72;;;23.25;83.15
28312;BME280;15572;48.810;9.148;2022-07-25T06:06:09;97721.03;;;23.39;83.01
28312;BME280;15572;48.810;9.148;2022-07-25T06:11:06;97709.53;;;23.61;81.45
28312;BME280;15572;48.810;9.148;2022-07-25T06:16:03;97709.00;;;23.83;80.07
28312;BME280;15572;48.810;9.148;2022-07-25T06:21:01;97709.63;;;24.04;77.00
28312;BME280;15572;48.810;9.148;2022-07-25T06:25:58;97708.56;;;24.23;73.87
28312;BME280;15572;48.810;9.148;2022-07-25T06:30:54;97698.13;;;24.39;72.50
28312;BME280;15572;48.810;9.148;2022-07-25T06:35:51;97694.84;;;24.56;72.05
28312;BME280;15572;48.810;9.148;2022-07-25T06:40:48;97691.03;;;24.70;71.18
28312;BME280;15572;48.810;9.148;2022-07-25T06:45:45;97692.19;;;24.88;69.09
28312;BME280;15572;48.810;9.148;2022-07-25T06:50:42;97691.31;;;25.06;66.85
28312;BME280;15572;48.810;9.148;2022-07-25T06:55:39;97696.53;;;25.27;65.89
28312;BME280;15572;48.810;9.148;2022-07-25T07:00:37;97692.97;;;25.40;65.66
28312;BME280;15572;48.810;9.148;2022-07-25T07:05:34;97688.81;;;25.56;64.84
28312;BME280;15572;48.810;9.148;2022-07-25T07:10:31;97690.91;;;25.78;63.89
28312;BME280;15572;48.810;9.148;2022-07-25T07:15:28;97676.34;;;25.99;63.44
28312;BME280;15572;48.810;9.148;2022-07-25T07:20:26;97689.22;;;26.23;63.43
28312;BME280;15572;48.810;9.148;2022-07-25T07:25:22;97686.16;;;26.60;61.52
28312;BME280;15572;48.810;9.148;2022-07-25T07:30:19;97684.03;;;26.79;61.19
28312;BME280;15572;48.810;9.148;2022-07-25T07:35:16;97674.78;;;26.98;60.82
28312;BME280;15572;48.810;9.148;2022-07-25T07:40:14;97677.84;;;27.18;58.95
28312;BME280;15572;48.810;9.148;2022-07-25T07:45:13;97665.78;;;27.23;60.05
28312;BME280;15572;48.810;9.148;2022-07-25T07:50:10;97652.88;;;27.49;56.05
28312;BME280;15572;48.810;9.148;2022-07-25T07:55:07;97652.94;;;27.58;56.95
28312;BME280;15572;48.810;9.148;2022-07-25T08:00:23;97664.13;;;27.67;56.92
28312;BME280;15572;48.810;9.148;2022-07-25T08:05:20;97654.69;;;27.85;53.88
28312;BME280;15572;48.810;9.148;2022-07-25T08:10:19;97662.97;;;28.07;53.09
28312;BME280;15572;48.810;9.148;2022-07-25T08:15:18;97654.44;;;28.52;50.81
28312;BME280;15572;48.810;9.148;2022-07-25T08:20:16;97660.94;;;28.38;51.92
28312;BME280;15572;48.810;9.148;2022-07-25T08:25:14;97665.94;;;29.10;44.99
28312;BME280;15572;48.810;9.148;2022-07-25T08:30:12;97659.31;;;29.49;42.66
28312;BME280;15572;48.810;9.148;2022-07-25T08:35:09;97662.59;;;29.51;43.21
28312;BME280;15572;48.810;9.148;2022-07-25T08:40:09;97664.25;;;29.44;45.02
28312;BME280;15572;48.810;9.148;2022-07-25T08:45:08;97666.88;;;29.40;47.68
28312;BME280;15572;48.810;9.148;2022-07-25T08:50:07;97660.09;;;29.67;42.97
28312;BME280;15572;48.810;9.148;2022-07-25T08:55:09;97665.63;;;29.84;41.55
28312;BME280;15572;48.810;9.148;2022-07-25T09:00:10;97658.16;;;30.35;38.82
28312;BME280;15572;48.810;9.148;2022-07-25T09:05:07;97663.00;;;30.46;39.56
28312;BME280;15572;48.810;9.148;2022-07-25T09:10:13;97654.72;;;30.38;40.95
28312;BME280;15572;48.810;9.148;2022-07-25T09:15:10;97657.78;;;30.45;41.26
28312;BME280;15572;48.810;9.148;2022-07-25T09:20:07;97648.69;;;30.57;39.32
28312;BME280;15572;48.810;9.148;2022-07-25T09:25:05;97648.91;;;30.93;38.87
28312;BME280;15572;48.810;9.148;2022-07-25T09:30:12;97639.09;;;30.87;39.17
28312;BME280;15572;48.810;9.148;2022-07-25T09:35:09;97635.16;;;31.09;38.42
28312;BME280;15572;48.810;9.148;2022-07-25T09:40:13;97618.59;;;31.04;39.94
28312;BME280;15572;48.810;9.148;2022-07-25T09:45:13;97642.50;;;31.13;39.31
28312;BME280;15572;48.810;9.148;2022-07-25T09:50:10;97643.25;;;31.22;39.91
28312;BME280;15572;48.810;9.148;2022-07-25T09:55:07;97635.66;;;31.23;38.98
28312;BME280;15572;48.810;9.148;2022-07-25T10:00:07;97638.28;;;31.40;37.93
28312;BME280;15572;48.810;9.148;2022-07-25T10:05:12;97634.41;;;31.32;38.56
28312;BME280;15572;48.810;9.148;2022-07-25T10:10:20;97623.16;;;31.53;38.50
28312;BME280;15572;48.810;9.148;2022-07-25T10:15:17;97618.56;;;31.57;37.85
28312;BME280;15572;48.810;9.148;2022-07-25T10:20:14;97611.94;;;31.29;40.79
28312;BME280;15572;48.810;9.148;2022-07-25T10:25:13;97601.03;;;31.15;39.29
28312;BME280;15572;48.810;9.148;2022-07-25T10:30:18;97604.38;;;31.42;38.44
28312;BME280;15572;48.810;9.148;2022-07-25T10:35:16;97594.88;;;31.55;39.25
28312;BME280;15572;48.810;9.148;2022-07-25T10:40:24;97595.03;;;31.70;36.84
28312;BME280;15572;48.810;9.148;2022-07-25T10:45:25;97592.22;;;31.70;37.50
28312;BME280;15572;48.810;9.148;2022-07-25T10:50:23;97581.50;;;31.85;36.91
28312;BME280;15572;48.810;9.148;2022-07-25T10:55:22;97560.41;;;32.24;36.49
28312;BME280;15572;48.810;9.148;2022-07-25T11:00:19;97560.44;;;32.91;32.98
28312;BME280;15572;48.810;9.148;2022-07-25T11:05:15;97557.06;;;33.57;32.01
28312;BME280;15572;48.810;9.148;2022-07-25T11:10:13;97559.75;;;34.51;30.57
28312;BME280;15572;48.810;9.148;2022-07-25T11:15:10;97556.31;;;35.35;30.41
28312;BME280;15572;48.810;9.148;2022-07-25T11:20:08;97548.22;;;35.75;27.81
28312;BME280;15572;48.810;9.148;2022-07-25T11:25:10;97541.72;;;35.71;29.01
28312;BME280;15572;48.810;9.148;2022-07-25T11:30:09;97528.34;;;35.91;29.22
28312;BME280;15572;48.810;9.148;2022-07-25T11:35:08;97521.06;;;36.39;28.70
28312;BME280;15572;48.810;9.148;2022-07-25T11:40:06;97525.16;;;36.45;26.97
28312;BME280;15572;48.810;9.148;2022-07-25T11:45:16;97524.53;;;36.03;26.57
28312;BME280;15572;48.810;9.148;2022-07-25T11:50:13;97515.94;;;35.24;27.84
28312;BME280;15572;48.810;9.148;2022-07-25T11:55:15;97507.44;;;36.15;27.39
28312;BME280;15572;48.810;9.148;2022-07-25T12:00:18;97506.78;;;35.99;27.63
28312;BME280;15572;48.810;9.148;2022-07-25T12:05:16;97503.19;;;35.53;28.34
28312;BME280;15572;48.810;9.148;2022-07-25T12:10:14;97524.81;;;35.06;28.05
28312;BME280;15572;48.810;9.148;2022-07-25T12:15:12;97518.97;;;34.96;29.06
28312;BME280;15572;48.810;9.148;2022-07-25T12:20:18;97507.38;;;34.97;29.37
28312;BME280;15572;48.810;9.148;2022-07-25T12:25:16;97511.19;;;35.28;29.23
28312;BME280;15572;48.810;9.148;2022-07-25T12:30:13;97505.91;;;35.95;28.15
28312;BME280;15572;48.810;9.148;2022-07-25T12:35:11;97503.25;;;35.33;29.31
28312;BME280;15572;48.810;9.148;2022-07-25T12:40:10;97515.94;;;35.24;29.34
28312;BME280;15572;48.810;9.148;2022-07-25T12:45:08;97499.97;;;34.89;30.49
28312;BME280;15572;48.810;9.148;2022-07-25T12:50:05;97502.94;;;34.39;30.72
28312;BME280;15572;48.810;9.148;2022-07-25T12:55:03;97500.84;;;34.36;31.10
28312;BME280;15572;48.810;9.148;2022-07-25T13:00:01;97510.56;;;34.96;30.07
28312;BME280;15572;48.810;9.148;2022-07-25T13:04:58;97484.53;;;36.16;28.78
28312;BME280;15572;48.810;9.148;2022-07-25T13:09:54;97481.44;;;37.22;27.68
28312;BME280;15572;48.810;9.148;2022-07-25T13:14:51;97484.69;;;36.90;27.96
28312;BME280;15572;48.810;9.148;2022-07-25T13:19:49;97474.28;;;36.98;27.09
28312;BME280;15572;48.810;9.148;2022-07-25T13:24:45;97475.94;;;36.09;28.15
28312;BME280;15572;48.810;9.148;2022-07-25T13:29:42;97476.94;;;35.68;29.27
28312;BME280;15572;48.810;9.148;2022-07-25T13:34:38;97477.19;;;37.05;26.04
28312;BME280;15572;48.810;9.148;2022-07-25T13:39:37;97467.41;;;36.02;25.72
28312;BME280;15572;48.810;9.148;2022-07-25T13:44:36;97471.06;;;35.31;26.62
28312;BME280;15572;48.810;9.148;2022-07-25T13:49:32;97467.03;;;35.32;26.26
28312;BME280;15572;48.810;9.148;2022-07-25T13:54:31;97466.06;;;35.01;27.26
28312;BME280;15572;48.810;9.148;2022-07-25T13:59:28;97464.81;;;34.76;28.12
28312;BME280;15572;48.810;9.148;2022-07-25T14:04:25;97469.66;;;34.41;29.03
28312;BME280;15572;48.810;9.148;2022-07-25T14:09:22;97478.91;;;34.06;30.56
28312;BME280;15572;48.810;9.148;2022-07-25T14:14:18;97482.00;;;34.01;31.36
28312;BME280;15572;48.810;9.148;2022-07-25T14:19:16;97487.41;;;34.10;31.11
28312;BME280;15572;48.810;9.148;2022-07-25T14:24:12;97477.38;;;33.74;32.98
28312;BME280;15572;48.810;9.148;2022-07-25T14:29:09;97482.19;;;34.08;32.22
28312;BME280;15572;48.810;9.148;2022-07-25T14:34:06;97468.72;;;33.82;32.56
28312;BME280;15572;48.810;9.148;2022-07-25T14:39:04;97471.16;;;34.35;32.35
28312;BME280;15572;48.810;9.148;2022-07-25T14:44:01;97455.75;;;34.86;31.25
28312;BME280;15572;48.810;9.148;2022-07-25T14:48:57;97467.56;;;34.95;31.71
28312;BME280;15572;48.810;9.148;2022-07-25T14:53:54;97472.19;;;35.72;30.95
28312;BME280;15572;48.810;9.148;2022-07-25T14:58:51;97474.31;;;34.91;31.82
28312;BME280;15572;48.810;9.148;2022-07-25T15:03:48;97465.31;;;34.43;32.11
28312;BME280;15572;48.810;9.148;2022-07-25T15:08:44;97462.22;;;34.29;31.62
28312;BME280;15572;48.810;9.148;2022-07-25T15:13:41;97472.50;;;34.06;31.89
28312;BME280;15572;48.810;9.148;2022-07-25T15:18:39;97475.44;;;33.78;32.40
28312;BME280;15572;48.810;9.148;2022-07-25T15:23:36;97493.66;;;34.03;33.54
28312;BME280;15572;48.810;9.148;2022-07-25T15:28:34;97496.13;;;34.05;35.18
28312;BME280;15572;48.810;9.148;2022-07-25T15:33:31;97484.69;;;33.78;35.87
28312;BME280;15572;48.810;9.148;2022-07-25T15:38:29;97499.44;;;33.91;35.98
28312;BME280;15572;48.810;9.148;2022-07-25T15:43:26;97490.03;;;32.77;38.06
28312;BME280;15572;48.810;9.148;2022-07-25T15:48:22;97487.66;;;32.11;39.11
28312;BME280;15572;48.810;9.148;2022-07-25T15:53:19;97490.59;;;31.54;39.94
28312;BME280;15572;48.810;9.148;2022-07-25T15:58:17;97487.91;;;31.46;40.40
28312;BME280;15572;48.810;9.148;2022-07-25T16:03:13;97486.38;;;31.97;39.48
28312;BME280;15572;48.810;9.148;2022-07-25T16:08:10;97467.72;;;32.13;38.79
28312;BME280;15572;48.810;9.148;2022-07-25T16:13:06;97469.69;;;32.12;38.42
28312;BME280;15572;48.810;9.148;2022-07-25T16:18:04;97464.56;;;32.14;37.69
28312;BME280;15572;48.810;9.148;2022-07-25T16:23:01;97479.84;;;32.05;37.69
28312;BME280;15572;48.810;9.148;2022-07-25T16:27:58;97476.28;;;32.32;36.74
28312;BME280;15572;48.810;9.148;2022-07-25T16:32:54;97474.19;;;32.29;36.25
28312;BME280;15572;48.810;9.148;2022-07-25T16:37:52;97470.50;;;32.13;35.69
28312;BME280;15572;48.810;9.148;2022-07-25T16:42:49;97473.06;;;32.18;35.84
28312;BME280;15572;48.810;9.148;2022-07-25T16:47:49;97469.94;;;32.47;35.22
28312;BME280;15572;48.810;9.148;2022-07-25T16:52:46;97459.88;;;32.58;35.13
28312;BME280;15572;48.810;9.148;2022-07-25T16:57:44;97468.00;;;32.64;35.29
28312;BME280;15572;48.810;9.148;2022-07-25T17:02:41;97461.44;;;32.72;35.39
28312;BME280;15572;48.810;9.148;2022-07-25T17:07:39;97470.47;;;32.65;35.28
28312;BME280;15572;48.810;9.148;2022-07-25T17:12:35;97464.66;;;32.58;35.75
28312;BME280;15572;48.810;9.148;2022-07-25T17:17:34;97480.66;;;32.45;36.21
28312;BME280;15572;48.810;9.148;2022-07-25T17:22:30;97479.88;;;32.33;36.63
28312;BME280;15572;48.810;9.148;2022-07-25T17:27:27;97482.41;;;32.10;36.99
28312;BME280;15572;48.810;9.148;2022-07-25T17:32:23;97495.00;;;31.92;37.95
28312;BME280;15572;48.810;9.148;2022-07-25T17:37:21;97484.78;;;31.71;38.80
28312;BME280;15572;48.810;9.148;2022-07-25T17:42:18;97504.69;;;31.46;39.64
28312;BME280;15572;48.810;9.148;2022-07-25T17:47:16;97493.38;;;31.30;39.15
28312;BME280;15572;48.810;9.148;2022-07-25T17:52:13;97511.38;;;31.20;39.18
28312;BME280;15572;48.810;9.148;2022-07-25T17:57:13;97524.78;;;31.15;38.49
28312;BME280;15572;48.810;9.148;2022-07-25T18:02:09;97527.75;;;30.98;38.80
28312;BME280;15572;48.810;9.148;2022-07-25T18:07:06;97541.75;;;30.77;39.31
28312;BME280;15572;48.810;9.148;2022-07-25T18:12:03;97533.59;;;30.51;40.34
28312;BME280;15572;48.810;9.148;2022-07-25T18:17:01;97547.94;;;30.20;41.11
28312;BME280;15572;48.810;9.148;2022-07-25T18:22:00;97558.94;;;29.87;41.70
28312;BME280;15572;48.810;9.148;2022-07-25T18:26:57;97567.13;;;29.63;42.17
28312;BME280;15572;48.810;9.148;2022-07-25T18:31:54;97591.13;;;29.47;42.55
28312;BME280;15572;48.810;9.148;2022-07-25T18:36:51;97597.94;;;29.03;43.05
28312;BME280;15572;48.810;9.148;2022-07-25T18:41:48;97614.66;;;28.94;42.28
28312;BME280;15572;48.810;9.148;2022-07-25T18:46:45;97608.59;;;28.58;43.04
28312;BME280;15572;48.810;9.148;2022-07-25T18:51:41;97623.78;;;28.34;43.05
28312;BME280;15572;48.810;9.148;2022-07-25T18:56:39;97640.75;;;28.16;42.52
28312;BME280;15572;48.810;9.148;2022-07-25T19:01:36;97633.47;;;27.97;42.99
28312;BME280;15572;48.810;9.148;2022-07-25T19:06:32;97652.09;;;27.88;43.15
28312;BME280;15572;48.810;9.148;2022-07-25T19:11:29;97650.53;;;27.65;43.55
28312;BME280;15572;48.810;9.148;2022-07-25T19:16:29;97661.41;;;27.53;43.54
28312;BME280;15572;48.810;9.148;2022-07-25T19:21:26;97668.56;;;27.45;43.59
28312;BME280;15572;48.810;9.148;2022-07-25T19:26:23;97691.84;;;27.36;43.43
28312;BME280;15572;48.810;9.148;2022-07-25T19:31:19;97710.94;;;27.29;43.76
28312;BME280;15572;48.810;9.148;2022-07-25T19:36:17;97713.41;;;27.08;44.27
28312;BME280;15572;48.810;9.148;2022-07-25T19:41:16;97724.41;;;26.99;44.39
28312;BME280;15572;48.810;9.148;2022-07-25T19:46:12;97726.59;;;26.89;44.67
28312;BME280;15572;48.810;9.148;2022-07-25T19:51:08;97724.34;;;26.77;45.29
28312;BME280;15572;48.810;9.148;2022-07-25T19:56:07;97736.91;;;26.61;45.73
28312;BME280;15572;48.810;9.148;2022-07-25T20:01:04;97740.84;;;26.46;46.38
28312;BME280;15572;48.810;9.148;2022-07-25T20:06:00;97743.84;;;26.36;46.91
28312;BME280;15572;48.810;9.148;2022-07-25T20:10:56;97743.13;;;26.30;47.32
28312;BME280;15572;48.810;9.148;2022-07-25T20:15:54;97751.91;;;26.19;47.74
28312;BME280;15572;48.810;9.148;2022-07-25T20:20:51;97763.22;;;26.09;48.04
28312;BME280;15572;48.810;9.148;2022-07-25T20:25:48;97766.72;;;26.01;48.52
28312;BME280;15572;48.810;9.148;2022-07-25T20:30:44;97762.97;;;25.91;48.80
28312;BME280;15572;48.810;9.148;2022-07-25T20:35:42;97773.44;;;25.81;49.09
28312;BME280;15572;48.810;9.148;2022-07-25T20:40:39;97768.69;;;25.68;49.71
28312;BME280;15572;48.810;9.148;2022-07-25T20:45:37;97765.00;;;25.59;50.31
28312;BME280;15572;48.810;9.148;2022-07-25T20:50:35;97776.28;;;25.43;51.03
28312;BME280;15572;48.810;9.148;2022-07-25T20:55:33;97771.81;;;25.29;51.41
28312;BME280;15572;48.810;9.148;2022-07-25T21:00:30;97788.81;;;25.22;51.60
28312;BME280;15572;48.810;9.148;2022-07-25T21:05:27;97788.97;;;25.12;51.60
28312;BME280;15572;48.810;9.148;2022-07-25T21:10:24;97789.03;;;25.07;51.43
28312;BME280;15572;48.810;9.148;2022-07-25T21:15:23;97802.13;;;25.01;51.08
28312;BME280;15572;48.810;9.148;2022-07-25T21:20:19;97799.50;;;24.91;51.13
28312;BME280;15572;48.810;9.148;2022-07-25T21:25:16;97818.25;;;24.75;51.04
28312;BME280;15572;48.810;9.148;2022-07-25T21:30:13;97814.72;;;24.70;51.18
28312;BME280;15572;48.810;9.148;2022-07-25T21:35:11;97830.63;;;24.59;51.61
28312;BME280;15572;48.810;9.148;2022-07-25T21:40:08;97833.81;;;24.48;51.50
28312;BME280;15572;48.810;9.148;2022-07-25T21:45:06;97846.88;;;24.42;51.74
28312;BME280;15572;48.810;9.148;2022-07-25T21:50:03;97861.13;;;24.30;52.18
28312;BME280;15572;48.810;9.148;2022-07-25T21:55:19;97860.03;;;24.26;51.90
28312;BME280;15572;48.810;9.148;2022-07-25T22:00:16;97860.50;;;24.05;52.30
28312;BME280;15572;48.810;9.148;2022-07-25T22:05:15;97869.72;;;23.95;52.99
28312;BME280;15572;48.810;9.148;2022-07-25T22:10:13;97865.72;;;23.82;53.23
28312;BME280;15572;48.810;9.148;2022-07-25T22:15:12;97856.31;;;23.78;53.14
28312;BME280;15572;48.810;9.148;2022-07-25T22:20:10;97867.16;;;23.75;53.66
28312;BME280;15572;48.810;9.148;2022-07-25T22:25:07;97863.88;;;23.68;53.67
28312;BME280;15572;48.810;9.148;2022-07-25T22:30:05;97870.00;;;23.65;54.75
28312;BME280;15572;48.810;9.148;2022-07-25T22:35:03;97855.06;;;23.66;54.65
28312;BME280;15572;48.810;9.148;2022-07-25T22:40:00;97860.31;;;23.62;54.40
28312;BME280;15572;48.810;9.148;2022-07-25T22:44:57;97865.91;;;23.57;54.46
28312;BME280;15572;48.810;9.148;2022-07-25T22:49:54;97885.81;;;23.54;54.80
28312;BME280;15572;48.810;9.148;2022-07-25T22:54:52;97902.66;;;23.53;54.86
28312;BME280;15572;48.810;9.148;2022-07-25T22:59:48;97902.44;;;23.44;55.51
28312;BME280;15572;48.810;9.148;2022-07-25T23:04:45;97900.53;;;23.39;56.09
28312;BME280;15572;48.810;9.148;2022-07-25T23:09:41;97909.63;;;23.40;56.60
28312;BME280;15572;48.810;9.148;2022-07-25T23:14:39;97896.97;;;23.34;56.72
28312;BME280;15572;48.810;9.148;2022-07-25T23:19:35;97917.47;;;23.23;57.65
28312;BME280;15572;48.810;9.148;2022-07-25T23:24:32;97926.84;;;23.22;58.04
28312;BME280;15572;48.810;9.148;2022-07-25T23:29:28;97934.31;;;23.21;58.50
28312;BME280;15572;48.810;9.148;2022-07-25T23:34:26;97933.75;;;23.19;58.83
28312;BME280;15572;48.810;9.148;2022-07-25T23:39:23;97930.81;;;23.00;59.17
28312;BME280;15572;48.810;9.148;2022-07-25T23:44:20;97940.84;;;22.86;59.95
28312;BME280;15572;48.810;9.148;2022-07-25T23:49:16;97942.75;;;22.71;61.26
28312;BME280;15572;48.810;9.148;2022-07-25T23:54:14;97944.22;;;22.48;63.50
28312;BME280;15572;48.810;9.148;2022-07-25T23:59:11;97950.84;;;22.37;63.28
